FW6610 Weather Reports


time (UTC)temp
C
wind
direction
speed
KPH
gust
KPH
rain 1hr
cm
rain 24hr
cm
rain mn
cm
humidity
%
barometer
mb
20200531061550 14 283 4.8 16.1 0.00 0.03 0.00 66 1013.7
20200531061028 14 316 3.2 16.1 0.00 0.03 0.00 65 1013.6
20200531060528 14 347 4.8 14.5 0.00 0.03 0.00 65 1013.6
20200531060039 14 307 3.2 14.5 0.00 0.03 0.00 66 1013.5
20200531055537 15 210 4.8 14.5 0.00 0.15 0.00 66 1013.3
20200531055027 15 335 4.8 22.5 0.00 0.15 0.00 66 1013.4
20200531054613 15 330 3.2 24.1 0.00 0.15 0.00 66 1013.3
20200531054030 15 349 8.0 24.1 0.00 0.15 0.00 66 1013.3
20200531053532 15 330 9.7 17.7 0.00 0.15 0.00 66 1013.3
20200531053105 15 319 4.8 12.9 0.00 0.15 0.00 67 1013.4
20200531052528 15 4 1.6 12.9 0.00 0.15 0.00 67 1013.4
20200531052031 15 355 1.6 12.9 0.00 0.15 0.00 67 1013.4
20200531051544 15 25 0.0 3.2 0.00 0.15 0.00 67 1013.4
20200531051050 15 26 0.0 6.4 0.00 0.15 0.00 66 1013.2
20200531050542 15 13 1.6 11.3 0.00 0.15 0.00 65 1013.2
20200531050125 16 342 3.2 14.5 0.00 0.15 0.00 65 1013.3
20200531045529 16 162 4.8 17.7 0.00 0.15 0.00 65 1013.3
20200531045027 16 289 6.4 17.7 0.00 0.15 0.00 65 1013.2
20200531044614 16 359 1.6 4.8 0.00 0.15 0.00 67 1013.1
20200531044042 16 227 0.0 11.3 0.00 0.15 0.00 67 1013.0
20200531043530 16 341 0.0 11.3 0.00 0.15 0.00 67 1013.1
20200531043107 16 16 0.0 6.4 0.00 0.15 0.00 68 1013.2
20200531042532 16 17 1.6 6.4 0.00 0.15 0.00 68 1013.1
20200531042030 16 29 1.6 11.3 0.00 0.15 0.00 68 1013.0
20200531041654 16 88 1.6 11.3 0.00 0.15 0.00 67 1013.0
20200531041028 16 23 4.8 11.3 0.00 0.15 0.00 67 1013.0
20200531040532 16 330 1.6 8.0 0.00 0.15 0.00 68 1013.0
20200531040045 16 40 1.6 8.0 0.00 0.15 0.00 68 1013.0
20200531035528 16 290 0.0 12.9 0.00 0.15 0.15 68 1013.1
20200531035027 16 303 3.2 14.5 0.00 0.15 0.15 67 1013.1
20200531034615 16 63 4.8 14.5 0.00 0.15 0.15 67 1013.1
20200531034029 16 2 3.2 14.5 0.00 0.15 0.15 67 1013.1
20200531033531 16 340 3.2 12.9 0.00 0.15 0.15 67 1013.1
20200531033047 16 87 1.6 4.8 0.00 0.15 0.15 66 1013.1
20200531032528 16 359 1.6 4.8 0.00 0.15 0.15 65 1013.0
20200531032028 16 141 0.0 6.4 0.00 0.15 0.15 65 1013.1
20200531031559 17 142 0.0 9.7 0.00 0.15 0.15 64 1012.9
20200531031027 17 340 3.2 14.5 0.00 0.15 0.15 64 1012.9
20200531030529 17 302 4.8 17.7 0.00 0.15 0.15 64 1012.9
20200531030107 17 9 3.2 17.7 0.00 0.15 0.15 64 1012.7
20200531025528 17 307 6.4 27.4 0.00 0.15 0.15 64 1012.8
20200531025028 17 302 6.4 27.4 0.00 0.15 0.15 64 1013.0
20200531024544 17 292 8.0 20.9 0.00 0.15 0.15 65 1013.0
20200531024034 17 285 6.4 22.5 0.00 0.15 0.15 65 1013.0
20200531023528 17 1 8.0 22.5 0.00 0.15 0.15 65 1013.1
20200531023134 17 352 9.7 22.5 0.00 0.15 0.15 65 1013.0
20200531022528 17 8 8.0 19.3 0.00 0.15 0.15 65 1013.0
20200531022029 17 322 6.4 19.3 0.00 0.15 0.15 65 1013.1
20200531021539 17 259 6.4 19.3 0.00 0.15 0.15 65 1012.9
20200531021040 17 309 6.4 17.7 0.00 0.15 0.15 66 1013.0
20200531020531 17 5 6.4 19.3 0.00 0.15 0.15 66 1012.9
20200531020041 17 314 8.0 19.3 0.00 0.15 0.15 66 1012.9
20200531015530 17 290 4.8 16.1 0.00 0.15 0.15 66 1012.9
20200531015033 17 285 8.0 16.1 0.00 0.15 0.15 66 1012.8
20200531014638 17 314 6.4 16.1 0.00 0.15 0.15 67 1012.7
20200531014030 17 359 6.4 20.9 0.00 0.15 0.15 67 1012.5
20200531013537 17 285 8.0 20.9 0.00 0.15 0.15 66 1012.5
20200531013050 18 342 8.0 17.7 0.00 0.15 0.15 65 1012.4
20200531012528 18 300 6.4 24.1 0.00 0.15 0.15 65 1012.5
20200531012027 18 294 8.0 24.1 0.00 0.15 0.15 65 1012.5
20200531011551 18 336 8.0 25.7 0.00 0.15 0.15 64 1012.4
20200531011028 18 335 11.3 27.4 0.00 0.15 0.15 63 1012.4
20200531010528 19 284 12.9 27.4 0.00 0.15 0.15 62 1012.2
20200531010042 20 311 9.7 22.5 0.00 0.15 0.15 61 1012.0
20200531005536 19 301 11.3 20.9 0.00 0.15 0.15 60 1011.8
20200531005030 18 4 1.6 4.8 0.00 0.15 0.15 62 1011.4
20200531004550 18 0 0.0 1.6 0.00 0.15 0.15 61 1011.0
20200531004032 18 0 0.0 1.6 0.00 0.15 0.15 61 1010.9
20200531003527 18 0 0.0 0.0 0.00 0.15 0.15 65 1010.9
20200531003042 18 0 0.0 1.6 0.00 0.15 0.15 63 1010.8
20200531002536 18 0 0.0 1.6 0.00 0.15 0.15 63 1010.7
20200531002030 18 219 0.0 1.6 0.00 0.15 0.15 63 1010.7
20200531001550 19 0 0.0 0.0 0.00 0.15 0.15 61 1010.8
20200531001032 19 219 0.0 0.0 0.00 0.15 0.15 61 1010.8
20200531000531 20 0 0.0 0.0 0.00 0.15 0.15 61 1010.6
20200531000057 20 0 0.0 0.0 0.00 0.15 0.15 59 1010.6
20200530235529 20 0 0.0 1.6 0.00 0.15 0.15 58 1010.5
20200530235028 21 0 0.0 1.6 0.00 0.15 0.15 56 1010.5
20200530234612 21 219 0.0 1.6 0.00 0.15 0.15 51 1010.4
20200530234028 22 219 0.0 3.2 0.00 0.15 0.15 50 1010.5
20200530233528 22 219 1.6 3.2 0.00 0.15 0.15 51 1010.7
20200530233040 22 219 0.0 1.6 0.00 0.15 0.15 47 1010.6
20200530232534 23 229 0.0 1.6 0.00 0.15 0.15 44 1010.6
20200530232027 23 250 0.0 3.2 0.00 0.15 0.15 42 1010.7
20200530231600 24 271 1.6 3.2 0.00 0.15 0.15 41 1010.7
20200530231029 25 0 0.0 3.2 0.00 0.15 0.15 40 1010.6
20200530230527 25 244 0.0 3.2 0.00 0.15 0.15 41 1010.6
20200530230052 25 165 0.0 3.2 0.00 0.15 0.15 40 1010.5
20200530225530 26 283 1.6 3.2 0.00 0.15 0.15 43 1010.3
20200530225034 26 290 0.0 3.2 0.00 0.15 0.15 40 1010.5
20200530224545 26 0 0.0 3.2 0.00 0.15 0.15 39 1010.5
20200530224031 26 293 0.0 4.8 0.00 0.15 0.15 35 1010.6
20200530223528 25 0 1.6 4.8 0.00 0.15 0.15 37 1010.6
20200530223135 25 261 1.6 9.7 0.00 0.15 0.15 35 1010.7
20200530222527 25 89 1.6 9.7 0.00 0.15 0.15 36 1010.7
20200530222030 25 356 4.8 16.1 0.00 0.15 0.15 36 1010.7
20200530221559 25 22 4.8 16.1 0.00 0.15 0.15 38 1010.8
20200530221035 25 328 4.8 9.7 0.00 0.15 0.15 35 1010.7
20200530220530 26 134 3.2 8.0 0.00 0.15 0.15 33 1010.7
20200530220104 25 207 3.2 12.9 0.00 0.15 0.15 35 1010.8
20200530215528 25 292 1.6 12.9 0.00 0.15 0.15 35 1010.7
20200530215047 25 309 3.2 14.5 0.00 0.15 0.15 35 1010.7
20200530214552 25 251 6.4 14.5 0.00 0.15 0.15 36 1010.9
20200530214030 26 258 3.2 14.5 0.00 0.15 0.15 36 1010.9
20200530213530 26 314 4.8 14.5 0.00 0.15 0.15 37 1010.9
20200530213046 25 299 3.2 14.5 0.00 0.15 0.15 35 1010.9
20200530212531 25 9 4.8 14.5 0.00 0.15 0.15 35 1010.7
20200530212028 25 278 4.8 14.5 0.00 0.15 0.15 36 1010.8
20200530211606 25 303 8.0 16.1 0.00 0.15 0.15 34 1010.9
20200530211030 25 7 8.0 19.3 0.00 0.15 0.15 36 1010.9
20200530210533 25 4 6.4 19.3 0.00 0.15 0.15 36 1011.0
20200530210045 25 324 6.4 16.1 0.00 0.15 0.15 35 1010.9
20200530205530 25 328 6.4 16.1 0.00 0.15 0.15 36 1010.8
20200530205029 25 221 6.4 19.3 0.00 0.15 0.15 37 1010.8
20200530204644 25 272 9.7 20.9 0.00 0.15 0.15 36 1010.8
20200530204031 26 271 6.4 20.9 0.00 0.15 0.15 40 1010.7
20200530203532 26 356 6.4 12.9 0.00 0.15 0.15 39 1010.6
20200530203033 25 327 6.4 16.1 0.00 0.15 0.15 41 1010.7
20200530202530 26 303 4.8 16.1 0.00 0.15 0.15 38 1010.6
20200530202030 26 141 4.8 14.5 0.00 0.15 0.15 37 1010.5
20200530201551 26 274 3.2 14.5 0.00 0.15 0.15 40 1010.5
20200530201036 26 86 4.8 14.5 0.00 0.15 0.15 41 1010.4
20200530200527 26 23 3.2 11.3 0.00 0.15 0.15 40 1010.6
20200530200132 26 269 3.2 12.9 0.00 0.15 0.15 40 1010.4
20200530195527 26 39 4.8 17.7 0.00 0.15 0.15 39 1010.6
20200530195030 25 318 6.4 17.7 0.00 0.15 0.15 42 1010.5
20200530194554 26 319 3.2 8.0 0.00 0.15 0.15 41 1010.5
20200530194040 26 277 3.2 8.0 0.00 0.15 0.15 41 1010.6
20200530193527 25 30 1.6 20.9 0.00 0.15 0.15 41 1010.5
20200530193106 25 169 1.6 20.9 0.00 0.15 0.15 46 1010.8
20200530192534 25 0 3.2 9.7 0.00 0.15 0.15 42 1010.6
20200530192036 25 295 3.2 9.7 0.00 0.15 0.15 44 1010.8
20200530191600 25 266 4.8 8.0 0.00 0.15 0.15 44 1010.7
20200530191030 24 148 1.6 11.3 0.00 0.15 0.15 42 1010.7
20200530190531 25 317 4.8 11.3 0.00 0.15 0.15 41 1010.7
20200530190114 25 347 4.8 11.3 0.00 0.15 0.15 46 1010.8
20200530185527 25 329 4.8 9.7 0.00 0.15 0.15 42 1010.7
20200530185030 25 186 3.2 8.0 0.00 0.15 0.15 44 1010.7
20200530184556 25 8 3.2 9.7 0.00 0.15 0.15 45 1010.7
20200530184030 24 312 4.8 19.3 0.00 0.15 0.15 45 1010.8
20200530183530 24 237 3.2 19.3 0.00 0.15 0.15 43 1010.8
20200530183044 25 354 1.6 9.7 0.00 0.15 0.15 44 1010.8
20200530182529 25 248 3.2 9.7 0.00 0.15 0.15 41 1010.8
20200530182027 24 334 1.6 6.4 0.00 0.15 0.15 44 1010.9
20200530181554 24 350 3.2 12.9 0.00 0.15 0.15 44 1010.9
20200530181030 24 323 4.8 12.9 0.00 0.15 0.15 44 1010.9
20200530180530 24 309 6.4 12.9 0.00 0.15 0.15 45 1011.0
20200530180108 24 261 4.8 12.9 0.00 0.15 0.15 44 1011.1
20200530175545 24 330 4.8 12.9 0.00 0.15 0.15 42 1011.2
20200530175030 24 328 3.2 19.3 0.00 0.15 0.15 43 1011.2
20200530174551 24 239 6.4 19.3 0.00 0.15 0.15 46 1011.3
20200530174030 24 323 4.8 11.3 0.00 0.15 0.15 47 1011.3
20200530173530 24 286 1.6 12.9 0.00 0.15 0.15 48 1011.3
20200530173039 24 355 4.8 12.9 0.00 0.15 0.15 46 1011.3
20200530172532 24 253 3.2 9.7 0.00 0.15 0.15 46 1011.2
20200530172031 23 118 3.2 11.3 0.00 0.15 0.15 48 1011.4
20200530171602 23 8 6.4 11.3 0.00 0.15 0.15 49 1011.4
20200530171046 23 18 3.2 16.1 0.00 0.15 0.15 47 1011.4
20200530170530 23 357 6.4 16.1 0.00 0.15 0.15 48 1011.5
20200530170034 23 314 4.8 17.7 0.00 0.15 0.15 47 1011.5
20200530165527 23 25 8.0 17.7 0.00 0.15 0.15 47 1011.6
20200530165038 23 336 4.8 17.7 0.00 0.15 0.15 54 1011.6
20200530164548 22 300 9.7 17.7 0.00 0.15 0.15 48 1011.6
20200530164032 23 350 4.8 12.9 0.00 0.15 0.15 48 1011.7
20200530163534 23 310 6.4 12.9 0.00 0.15 0.15 51 1011.7
20200530163038 23 61 4.8 11.3 0.00 0.15 0.15 52 1011.7
20200530162536 22 38 3.2 11.3 0.00 0.15 0.15 54 1011.7
20200530162030 22 350 4.8 12.9 0.00 0.15 0.15 50 1011.7
20200530161535 22 277 4.8 16.1 0.00 0.15 0.15 53 1011.8
20200530161034 22 8 6.4 20.9 0.00 0.15 0.15 53 1012.1
20200530160535 22 11 8.0 20.9 0.00 0.15 0.15 51 1012.0
20200530160038 22 292 4.8 14.5 0.00 0.15 0.15 54 1012.0
20200530155526 22 259 4.8 14.5 0.00 0.15 0.15 55 1012.1
20200530155030 22 278 4.8 11.3 0.00 0.15 0.15 55 1012.2
20200530154546 22 313 4.8 19.3 0.00 0.15 0.15 53 1012.2
20200530154035 22 330 8.0 19.3 0.00 0.15 0.15 51 1012.3
20200530153551 22 358 4.8 17.7 0.00 0.15 0.15 52 1012.2
20200530153112 22 32 8.0 17.7 0.00 0.15 0.15 52 1012.5
20200530152532 21 349 6.4 12.9 0.00 0.15 0.15 55 1012.5
20200530152034 21 304 6.4 17.7 0.00 0.15 0.15 51 1012.7
20200530151610 22 299 6.4 17.7 0.00 0.15 0.15 56 1012.8
20200530151031 22 295 4.8 17.7 0.00 0.15 0.15 53 1012.5
20200530150534 21 339 6.4 19.3 0.00 0.15 0.15 54 1012.7
20200530150046 21 311 6.4 19.3 0.00 0.15 0.15 53 1012.5
20200530145529 21 359 6.4 19.3 0.00 0.15 0.15 58 1012.6
20200530145034 21 344 6.4 19.3 0.00 0.15 0.15 58 1012.5
20200530144542 21 340 6.4 24.1 0.00 0.15 0.15 58 1012.7
20200530144035 21 28 6.4 24.1 0.00 0.15 0.15 58 1012.7
20200530143531 21 354 8.0 22.5 0.00 0.15 0.15 58 1012.7
20200530143030 21 294 8.0 19.3 0.00 0.15 0.15 59 1012.5
20200530142529 21 253 4.8 14.5 0.00 0.15 0.15 59 1012.3
20200530142033 20 1 6.4 14.5 0.00 0.15 0.15 61 1012.5
20200530141549 20 308 6.4 16.1 0.00 0.15 0.15 60 1012.6
20200530141030 20 24 6.4 16.1 0.00 0.15 0.15 59 1012.5
20200530140532 20 322 3.2 20.9 0.00 0.15 0.15 60 1012.6
20200530140037 20 331 6.4 20.9 0.00 0.15 0.15 61 1012.4
20200530135530 20 15 4.8 17.7 0.00 0.15 0.15 60 1012.5
20200530135054 20 276 8.0 17.7 0.00 0.15 0.15 61 1012.4
20200530134549 20 1 4.8 16.1 0.00 0.15 0.15 63 1012.3
20200530134027 20 216 3.2 22.5 0.00 0.15 0.15 63 1012.2
20200530133550 20 231 12.9 22.5 0.00 0.15 0.15 60 1012.2
20200530133058 20 241 8.0 20.9 0.00 0.15 0.15 61 1012.2
20200530132530 20 271 8.0 25.7 0.00 0.15 0.15 63 1012.3
20200530132029 20 344 6.4 25.7 0.00 0.15 0.15 64 1012.3
20200530131625 20 342 6.4 19.3 0.00 0.15 0.15 64 1012.3
20200530131029 20 350 8.0 17.7 0.00 0.15 0.15 63 1012.3
20200530130546 20 283 4.8 16.1 0.00 0.15 0.15 63 1012.3
20200530130028 20 326 4.8 16.1 0.00 0.15 0.15 61 1012.4
20200530125529 20 339 8.0 20.9 0.00 0.15 0.15 61 1012.4
20200530125029 20 317 8.0 20.9 0.00 0.15 0.15 63 1012.4
20200530124552 20 20 4.8 17.7 0.00 0.15 0.15 62 1012.3
20200530124034 20 308 4.8 17.7 0.00 0.15 0.15 66 1012.2
20200530123536 20 335 4.8 16.1 0.00 0.15 0.15 64 1012.2
20200530123054 19 6 3.2 9.7 0.00 0.15 0.15 70 1012.2
20200530122531 19 43 1.6 9.7 0.00 0.15 0.15 70 1012.1
20200530122041 18 304 1.6 17.7 0.00 0.15 0.15 71 1012.2
20200530121558 18 355 4.8 17.7 0.00 0.15 0.15 71 1012.1
20200530121033 18 326 3.2 11.3 0.00 0.15 0.15 72 1012.1
20200530120534 18 275 1.6 9.7 0.00 0.15 0.15 73 1012.0
20200530120126 18 279 1.6 9.7 0.00 0.15 0.15 74 1012.0
20200530115530 18 32 3.2 11.3 0.00 0.15 0.15 74 1012.1
20200530115028 18 275 4.8 11.3 0.00 0.15 0.15 73 1012.0
20200530114551 18 263 4.8 11.3 0.00 0.15 0.15 74 1012.0
20200530114029 18 297 4.8 11.3 0.00 0.15 0.15 75 1011.8
20200530113537 18 39 3.2 9.7 0.00 0.15 0.15 76 1011.8
20200530113029 18 322 3.2 9.7 0.00 0.15 0.15 76 1011.7
20200530112533 18 293 4.8 27.4 0.00 0.15 0.15 76 1011.7
20200530112029 18 342 3.2 27.4 0.00 0.15 0.15 76 1011.5
20200530111558 18 20 6.4 14.5 0.00 0.15 0.15 78 1011.4
20200530111030 18 314 6.4 12.9 0.00 0.15 0.15 77 1011.3
20200530110529 19 342 4.8 17.7 0.00 0.15 0.15 79 1011.1
20200530110033 19 313 8.0 17.7 0.00 0.15 0.15 82 1011.3
20200530105529 19 5 3.2 12.9 0.00 0.15 0.15 83 1011.2
20200530105028 19 263 3.2 16.1 0.00 0.15 0.15 87 1011.2
20200530104541 19 352 8.0 16.1 0.00 0.15 0.15 87 1011.2
20200530104036 18 330 1.6 6.4 0.00 0.15 0.15 93 1011.0
20200530103529 18 321 0.0 0.0 0.00 0.15 0.15 96 1011.1
20200530103059 18 0 0.0 0.0 0.00 0.15 0.15 95 1011.1
20200530102552 18 0 0.0 0.0 0.00 0.15 0.15 95 1011.0
20200530102029 18 168 0.0 1.6 0.00 0.15 0.15 95 1010.8
20200530101546 18 168 0.0 3.2 0.00 0.15 0.15 95 1010.8
20200530101030 18 136 0.0 3.2 0.00 0.15 0.15 96 1010.7
20200530100534 18 131 0.0 3.2 0.00 0.15 0.15 96 1010.5
20200530100111 18 0 0.0 1.6 0.00 0.15 0.15 96 1010.6
20200530095531 18 127 0.0 1.6 0.00 0.15 0.15 96 1010.6
20200530095028 18 0 0.0 1.6 0.00 0.15 0.15 96 1010.6
20200530094601 18 127 0.0 1.6 0.00 0.15 0.15 96 1010.6
20200530094033 18 127 0.0 1.6 0.00 0.15 0.15 96 1010.4
20200530093537 18 0 0.0 1.6 0.00 0.15 0.15 96 1010.4
20200530093048 18 156 0.0 1.6 0.00 0.15 0.15 96 1010.3
20200530092529 18 0 0.0 1.6 0.00 0.15 0.15 96 1010.2
20200530092048 18 138 0.0 1.6 0.00 0.15 0.15 96 1010.3
20200530091028 18 0 0.0 1.6 0.00 0.15 0.15 96 1010.2
20200530090529 18 0 0.0 1.6 0.00 0.15 0.15 96 1010.1
20200530090042 18 0 0.0 1.6 0.00 0.15 0.15 96 1010.1
20200530085529 18 138 0.0 1.6 0.00 0.15 0.15 96 1010.2
20200530085029 18 136 0.0 1.6 0.00 0.15 0.15 95 1010.1
20200530084620 18 160 0.0 1.6 0.00 0.15 0.15 95 1010.1
20200530084028 18 165 0.0 3.2 0.00 0.15 0.15 95 1010.2
20200530083533 18 169 0.0 3.2 0.00 0.15 0.15 95 1010.1
20200530083127 19 150 0.0 1.6 0.00 0.15 0.15 95 1010.1
20200530082532 19 146 0.0 1.6 0.00 0.15 0.15 95 1010.2
20200530082033 19 206 0.0 1.6 0.00 0.15 0.15 95 1010.1
20200530081813 19 153 0.0 1.6 0.00 0.15 0.15 95 1010.1
20200530081030 19 152 0.0 1.6 0.00 0.15 0.15 95 1010.0
20200530080529 19 160 0.0 0.0 0.00 0.15 0.15 95 1010.2
20200530080047 19 160 0.0 1.6 0.00 0.15 0.15 95 1010.2
20200530075529 19 159 0.0 1.6 0.00 0.15 0.15 95 1010.2
20200530075029 19 163 1.6 1.6 0.03 0.15 0.15 95 1010.1
20200530074558 19 0 0.0 1.6 0.03 0.15 0.15 95 1009.9
20200530074030 19 0 0.0 3.2 0.03 0.15 0.15 95 1009.9
20200530073529 19 141 0.0 3.2 0.03 0.15 0.15 95 1009.9
20200530073055 19 143 0.0 1.6 0.03 0.15 0.15 95 1010.0
20200530072533 19 143 0.0 1.6 0.03 0.15 0.15 95 1010.0
20200530072029 19 141 0.0 1.6 0.03 0.15 0.15 95 1009.9
20200530071538 19 143 0.0 1.6 0.03 0.15 0.15 95 1010.1
20200530071029 19 144 0.0 1.6 0.03 0.15 0.15 95 1010.4
20200530070529 19 142 0.0 6.4 0.03 0.15 0.15 95 1010.4
20200530070157 19 139 1.6 6.4 0.03 0.15 0.15 95 1010.3
20200530065528 19 143 1.6 4.8 0.00 0.13 0.13 95 1010.4
20200530065032 19 166 0.0 3.2 0.00 0.13 0.13 95 1010.7
20200530064531 19 0 0.0 1.6 0.03 0.13 0.13 95 1010.8
20200530064034 19 213 0.0 3.2 0.13 0.13 0.13 95 1010.8
20200530063529 19 0 0.0 3.2 0.13 0.13 0.13 95 1010.7
20200530063055 19 141 0.0 1.6 0.13 0.13 0.13 94 1010.7
20200530062529 19 0 0.0 1.6 0.13 0.13 0.13 94 1010.6
20200530062032 19 141 0.0 3.2 0.13 0.13 0.13 94 1010.7